sensor_id;sensor_type;location;lat;lon;timestamp;P1;durP1;ratioP1;P2;durP2;ratioP2
60873;SDS011;46715;40.642;-7.920;2022-09-27T00:00:49;7.50;;;3.03;;
60873;SDS011;46715;40.642;-7.920;2022-09-27T00:02:50;7.73;;;2.83;;
60873;SDS011;46715;40.642;-7.920;2022-09-27T00:04:51;6.65;;;2.70;;
60873;SDS011;46715;40.642;-7.920;2022-09-27T00:06:52;9.23;;;2.87;;
60873;SDS011;46715;40.642;-7.920;2022-09-27T00:08:53;5.95;;;2.72;;
60873;SDS011;46715;40.642;-7.920;2022-09-27T00:11:01;9.18;;;2.47;;
60873;SDS011;46715;40.642;-7.920;2022-09-27T00:13:06;6.15;;;2.42;;
60873;SDS011;46715;40.642;-7.920;2022-09-27T00:15:07;6.90;;;2.63;;
60873;SDS011;46715;40.642;-7.920;2022-09-27T00:17:09;6.65;;;2.70;;
60873;SDS011;46715;40.642;-7.920;2022-09-27T00:19:14;7.80;;;2.77;;
60873;SDS011;46715;40.642;-7.920;2022-09-27T00:21:18;5.53;;;3.03;;
60873;SDS011;46715;40.642;-7.920;2022-09-27T00:23:18;6.33;;;3.00;;
60873;SDS011;46715;40.642;-7.920;2022-09-27T00:25:19;9.77;;;3.37;;
60873;SDS011;46715;40.642;-7.920;2022-09-27T00:27:21;5.35;;;3.08;;
60873;SDS011;46715;40.642;-7.920;2022-09-27T00:29:26;5.53;;;2.67;;
60873;SDS011;46715;40.642;-7.920;2022-09-27T00:31:28;6.57;;;2.70;;
60873;SDS011;46715;40.642;-7.920;2022-09-27T00:33:30;4.78;;;3.03;;
60873;SDS011;46715;40.642;-7.920;2022-09-27T00:35:31;7.87;;;2.77;;
60873;SDS011;46715;40.642;-7.920;2022-09-27T00:37:32;5.85;;;2.90;;
60873;SDS011;46715;40.642;-7.920;2022-09-27T00:39:33;3.30;;;2.60;;
60873;SDS011;46715;40.642;-7.920;2022-09-27T00:41:36;7.55;;;3.05;;
60873;SDS011;46715;40.642;-7.920;2022-09-27T00:46:27;6.28;;;3.03;;
60873;SDS011;46715;40.642;-7.920;2022-09-27T00:48:33;5.68;;;2.70;;
60873;SDS011;46715;40.642;-7.920;2022-09-27T00:50:40;10.13;;;3.20;;
60873;SDS011;46715;40.642;-7.920;2022-09-27T00:55:06;8.63;;;3.00;;
60873;SDS011;46715;40.642;-7.920;2022-09-27T00:57:10;6.57;;;2.40;;
60873;SDS011;46715;40.642;-7.920;2022-09-27T01:01:40;7.45;;;3.03;;
60873;SDS011;46715;40.642;-7.920;2022-09-27T01:03:51;6.30;;;2.85;;
60873;SDS011;46715;40.642;-7.920;2022-09-27T01:05:54;6.10;;;3.38;;
60873;SDS011;46715;40.642;-7.920;2022-09-27T01:07:57;5.18;;;2.80;;
60873;SDS011;46715;40.642;-7.920;2022-09-27T01:10:00;7.75;;;3.10;;
60873;SDS011;46715;40.642;-7.920;2022-09-27T01:12:07;4.55;;;2.75;;
60873;SDS011;46715;40.642;-7.920;2022-09-27T01:21:23;7.75;;;2.85;;
60873;SDS011;46715;40.642;-7.920;2022-09-27T01:37:34;8.27;;;3.13;;
60873;SDS011;46715;40.642;-7.920;2022-09-27T01:39:53;5.10;;;2.92;;
60873;SDS011;46715;40.642;-7.920;2022-09-27T01:44:31;4.35;;;3.10;;
60873;SDS011;46715;40.642;-7.920;2022-09-27T01:46:54;6.43;;;2.88;;
60873;SDS011;46715;40.642;-7.920;2022-09-27T01:49:19;8.57;;;3.08;;
60873;SDS011;46715;40.642;-7.920;2022-09-27T01:51:28;7.25;;;3.35;;
60873;SDS011;46715;40.642;-7.920;2022-09-27T01:53:39;6.30;;;2.95;;
60873;SDS011;46715;40.642;-7.920;2022-09-27T01:56:02;9.73;;;3.50;;
60873;SDS011;46715;40.642;-7.920;2022-09-27T01:58:29;6.72;;;3.28;;
60873;SDS011;46715;40.642;-7.920;2022-09-27T02:00:35;7.50;;;3.40;;
60873;SDS011;46715;40.642;-7.920;2022-09-27T02:02:46;5.82;;;2.63;;
60873;SDS011;46715;40.642;-7.920;2022-09-27T02:04:59;5.53;;;3.13;;
60873;SDS011;46715;40.642;-7.920;2022-09-27T02:07:39;8.30;;;3.08;;
60873;SDS011;46715;40.642;-7.920;2022-09-27T02:09:41;6.37;;;2.83;;
60873;SDS011;46715;40.642;-7.920;2022-09-27T02:11:53;6.85;;;2.58;;
60873;SDS011;46715;40.642;-7.920;2022-09-27T02:14:02;5.30;;;3.03;;
60873;SDS011;46715;40.642;-7.920;2022-09-27T02:16:27;6.00;;;2.67;;
60873;SDS011;46715;40.642;-7.920;2022-09-27T02:18:43;5.53;;;3.00;;
60873;SDS011;46715;40.642;-7.920;2022-09-27T02:20:56;6.63;;;2.92;;
60873;SDS011;46715;40.642;-7.920;2022-09-27T02:25:50;8.48;;;3.42;;
60873;SDS011;46715;40.642;-7.920;2022-09-27T02:30:09;6.10;;;2.80;;
60873;SDS011;46715;40.642;-7.920;2022-09-27T02:32:14;6.60;;;3.00;;
60873;SDS011;46715;40.642;-7.920;2022-09-27T02:34:17;5.22;;;2.70;;
60873;SDS011;46715;40.642;-7.920;2022-09-27T02:36:22;5.90;;;3.03;;
60873;SDS011;46715;40.642;-7.920;2022-09-27T02:38:23;6.33;;;3.33;;
60873;SDS011;46715;40.642;-7.920;2022-09-27T02:40:31;7.03;;;2.85;;
60873;SDS011;46715;40.642;-7.920;2022-09-27T02:42:34;8.27;;;3.25;;
60873;SDS011;46715;40.642;-7.920;2022-09-27T02:44:36;8.37;;;3.00;;
60873;SDS011;46715;40.642;-7.920;2022-09-27T02:59:40;6.30;;;3.78;;
60873;SDS011;46715;40.642;-7.920;2022-09-27T03:03:07;7.00;;;3.55;;
60873;SDS011;46715;40.642;-7.920;2022-09-27T03:05:00;8.77;;;3.92;;
60873;SDS011;46715;40.642;-7.920;2022-09-27T03:07:16;8.50;;;4.15;;
60873;SDS011;46715;40.642;-7.920;2022-09-27T03:09:21;6.38;;;2.97;;
60873;SDS011;46715;40.642;-7.920;2022-09-27T03:11:24;9.68;;;3.72;;
60873;SDS011;46715;40.642;-7.920;2022-09-27T03:13:25;6.70;;;3.75;;
60873;SDS011;46715;40.642;-7.920;2022-09-27T03:15:30;7.35;;;3.50;;
60873;SDS011;46715;40.642;-7.920;2022-09-27T03:17:34;7.85;;;3.75;;
60873;SDS011;46715;40.642;-7.920;2022-09-27T03:19:35;8.57;;;3.97;;
60873;SDS011;46715;40.642;-7.920;2022-09-27T03:21:55;7.35;;;3.72;;
60873;SDS011;46715;40.642;-7.920;2022-09-27T03:25:59;7.88;;;3.28;;
60873;SDS011;46715;40.642;-7.920;2022-09-27T03:28:00;8.30;;;4.00;;
60873;SDS011;46715;40.642;-7.920;2022-09-27T03:30:02;9.48;;;3.72;;
60873;SDS011;46715;40.642;-7.920;2022-09-27T03:32:03;8.55;;;4.00;;
60873;SDS011;46715;40.642;-7.920;2022-09-27T03:34:31;10.50;;;3.92;;
60873;SDS011;46715;40.642;-7.920;2022-09-27T03:36:32;9.10;;;4.13;;
60873;SDS011;46715;40.642;-7.920;2022-09-27T03:38:33;10.37;;;3.57;;
60873;SDS011;46715;40.642;-7.920;2022-09-27T03:40:34;8.50;;;3.85;;
60873;SDS011;46715;40.642;-7.920;2022-09-27T03:42:36;6.85;;;3.90;;
60873;SDS011;46715;40.642;-7.920;2022-09-27T03:44:38;9.20;;;4.30;;
60873;SDS011;46715;40.642;-7.920;2022-09-27T03:46:39;7.93;;;3.57;;
60873;SDS011;46715;40.642;-7.920;2022-09-27T03:48:39;5.10;;;3.77;;
60873;SDS011;46715;40.642;-7.920;2022-09-27T03:50:42;8.60;;;4.15;;
60873;SDS011;46715;40.642;-7.920;2022-09-27T03:52:43;6.23;;;3.80;;
60873;SDS011;46715;40.642;-7.920;2022-09-27T03:54:45;6.68;;;3.63;;
60873;SDS011;46715;40.642;-7.920;2022-09-27T03:56:47;6.65;;;3.30;;
60873;SDS011;46715;40.642;-7.920;2022-09-27T03:58:48;5.87;;;3.60;;
60873;SDS011;46715;40.642;-7.920;2022-09-27T04:00:50;5.47;;;3.00;;
60873;SDS011;46715;40.642;-7.920;2022-09-27T04:02:57;5.38;;;3.10;;
60873;SDS011;46715;40.642;-7.920;2022-09-27T04:04:59;8.00;;;3.50;;
60873;SDS011;46715;40.642;-7.920;2022-09-27T04:09:02;5.70;;;3.50;;
60873;SDS011;46715;40.642;-7.920;2022-09-27T04:11:20;7.90;;;3.05;;
60873;SDS011;46715;40.642;-7.920;2022-09-27T04:13:23;7.60;;;3.25;;
60873;SDS011;46715;40.642;-7.920;2022-09-27T04:15:27;5.10;;;3.38;;
60873;SDS011;46715;40.642;-7.920;2022-09-27T04:17:51;5.40;;;3.28;;
60873;SDS011;46715;40.642;-7.920;2022-09-27T04:20:08;7.43;;;3.33;;
60873;SDS011;46715;40.642;-7.920;2022-09-27T04:22:14;9.20;;;3.90;;
60873;SDS011;46715;40.642;-7.920;2022-09-27T04:24:17;9.32;;;3.92;;
60873;SDS011;46715;40.642;-7.920;2022-09-27T04:26:30;7.97;;;3.38;;
60873;SDS011;46715;40.642;-7.920;2022-09-27T04:28:54;7.30;;;3.60;;
60873;SDS011;46715;40.642;-7.920;2022-09-27T04:30:55;5.33;;;3.50;;
60873;SDS011;46715;40.642;-7.920;2022-09-27T04:33:28;7.13;;;3.75;;
60873;SDS011;46715;40.642;-7.920;2022-09-27T04:35:39;7.88;;;3.53;;
60873;SDS011;46715;40.642;-7.920;2022-09-27T04:38:00;6.97;;;3.75;;
60873;SDS011;46715;40.642;-7.920;2022-09-27T04:40:01;7.03;;;3.80;;
60873;SDS011;46715;40.642;-7.920;2022-09-27T04:42:04;6.00;;;3.50;;
60873;SDS011;46715;40.642;-7.920;2022-09-27T04:44:05;3.92;;;2.72;;
60873;SDS011;46715;40.642;-7.920;2022-09-27T04:46:07;5.95;;;3.10;;
60873;SDS011;46715;40.642;-7.920;2022-09-27T04:48:08;4.20;;;2.63;;
60873;SDS011;46715;40.642;-7.920;2022-09-27T04:50:09;4.57;;;2.55;;
60873;SDS011;46715;40.642;-7.920;2022-09-27T04:52:10;6.30;;;2.67;;
60873;SDS011;46715;40.642;-7.920;2022-09-27T04:54:11;6.00;;;2.37;;
60873;SDS011;46715;40.642;-7.920;2022-09-27T04:56:21;8.18;;;3.13;;
60873;SDS011;46715;40.642;-7.920;2022-09-27T04:58:21;5.23;;;3.20;;
60873;SDS011;46715;40.642;-7.920;2022-09-27T05:00:24;3.60;;;2.70;;
60873;SDS011;46715;40.642;-7.920;2022-09-27T05:02:34;5.88;;;2.63;;
60873;SDS011;46715;40.642;-7.920;2022-09-27T05:04:54;6.97;;;2.92;;
60873;SDS011;46715;40.642;-7.920;2022-09-27T05:06:58;5.07;;;2.80;;
60873;SDS011;46715;40.642;-7.920;2022-09-27T05:09:10;6.43;;;2.83;;
60873;SDS011;46715;40.642;-7.920;2022-09-27T05:11:21;4.95;;;2.50;;
60873;SDS011;46715;40.642;-7.920;2022-09-27T05:13:54;4.68;;;2.40;;
60873;SDS011;46715;40.642;-7.920;2022-09-27T05:16:03;4.22;;;2.58;;
60873;SDS011;46715;40.642;-7.920;2022-09-27T05:18:43;6.20;;;2.50;;
60873;SDS011;46715;40.642;-7.920;2022-09-27T05:21:02;6.15;;;2.65;;
60873;SDS011;46715;40.642;-7.920;2022-09-27T05:23:10;5.13;;;2.67;;
60873;SDS011;46715;40.642;-7.920;2022-09-27T05:25:11;9.73;;;2.97;;
60873;SDS011;46715;40.642;-7.920;2022-09-27T05:27:13;5.28;;;2.67;;
60873;SDS011;46715;40.642;-7.920;2022-09-27T05:29:20;6.22;;;2.88;;
60873;SDS011;46715;40.642;-7.920;2022-09-27T05:31:36;4.95;;;2.90;;
60873;SDS011;46715;40.642;-7.920;2022-09-27T05:33:36;3.40;;;2.47;;
60873;SDS011;46715;40.642;-7.920;2022-09-27T05:36:06;5.45;;;2.60;;
60873;SDS011;46715;40.642;-7.920;2022-09-27T05:38:08;6.32;;;3.10;;
60873;SDS011;46715;40.642;-7.920;2022-09-27T05:40:10;8.68;;;3.10;;
60873;SDS011;46715;40.642;-7.920;2022-09-27T05:42:11;3.77;;;2.60;;
60873;SDS011;46715;40.642;-7.920;2022-09-27T05:44:15;6.57;;;3.40;;
60873;SDS011;46715;40.642;-7.920;2022-09-27T05:46:26;6.45;;;3.38;;
60873;SDS011;46715;40.642;-7.920;2022-09-27T05:48:27;15.07;;;4.10;;
60873;SDS011;46715;40.642;-7.920;2022-09-27T05:50:39;5.55;;;3.80;;
60873;SDS011;46715;40.642;-7.920;2022-09-27T05:52:40;8.03;;;3.20;;
60873;SDS011;46715;40.642;-7.920;2022-09-27T05:54:41;8.43;;;2.97;;
60873;SDS011;46715;40.642;-7.920;2022-09-27T05:56:42;7.53;;;3.60;;
60873;SDS011;46715;40.642;-7.920;2022-09-27T05:59:00;4.88;;;3.08;;
60873;SDS011;46715;40.642;-7.920;2022-09-27T06:01:09;4.60;;;3.10;;
60873;SDS011;46715;40.642;-7.920;2022-09-27T06:03:40;6.85;;;3.40;;
60873;SDS011;46715;40.642;-7.920;2022-09-27T06:06:04;8.60;;;3.78;;
60873;SDS011;46715;40.642;-7.920;2022-09-27T06:08:11;5.85;;;3.72;;
60873;SDS011;46715;40.642;-7.920;2022-09-27T06:10:19;9.00;;;3.67;;
60873;SDS011;46715;40.642;-7.920;2022-09-27T06:12:20;5.13;;;3.40;;
60873;SDS011;46715;40.642;-7.920;2022-09-27T06:14:22;7.93;;;3.40;;
60873;SDS011;46715;40.642;-7.920;2022-09-27T06:16:34;5.10;;;3.28;;
60873;SDS011;46715;40.642;-7.920;2022-09-27T06:18:36;8.07;;;3.58;;
60873;SDS011;46715;40.642;-7.920;2022-09-27T06:20:37;5.38;;;3.03;;
60873;SDS011;46715;40.642;-7.920;2022-09-27T06:22:40;4.68;;;2.90;;
60873;SDS011;46715;40.642;-7.920;2022-09-27T06:24:41;6.93;;;3.27;;
60873;SDS011;46715;40.642;-7.920;2022-09-27T06:26:49;9.82;;;3.17;;
60873;SDS011;46715;40.642;-7.920;2022-09-27T06:29:08;6.25;;;2.90;;
60873;SDS011;46715;40.642;-7.920;2022-09-27T06:31:13;6.57;;;3.33;;
60873;SDS011;46715;40.642;-7.920;2022-09-27T06:33:21;5.10;;;3.60;;
60873;SDS011;46715;40.642;-7.920;2022-09-27T06:35:25;6.57;;;3.20;;
60873;SDS011;46715;40.642;-7.920;2022-09-27T06:39:27;6.43;;;3.25;;
60873;SDS011;46715;40.642;-7.920;2022-09-27T06:41:37;8.00;;;3.53;;
60873;SDS011;46715;40.642;-7.920;2022-09-27T06:43:56;7.00;;;3.38;;
60873;SDS011;46715;40.642;-7.920;2022-09-27T06:46:22;8.00;;;3.90;;
60873;SDS011;46715;40.642;-7.920;2022-09-27T06:48:31;8.32;;;3.05;;
60873;SDS011;46715;40.642;-7.920;2022-09-27T06:50:50;5.95;;;2.80;;
60873;SDS011;46715;40.642;-7.920;2022-09-27T06:52:52;5.72;;;3.35;;
60873;SDS011;46715;40.642;-7.920;2022-09-27T06:54:53;4.30;;;3.03;;
60873;SDS011;46715;40.642;-7.920;2022-09-27T06:56:54;8.73;;;3.43;;
60873;SDS011;46715;40.642;-7.920;2022-09-27T06:58:56;6.30;;;3.55;;
60873;SDS011;46715;40.642;-7.920;2022-09-27T07:01:16;9.57;;;4.03;;
60873;SDS011;46715;40.642;-7.920;2022-09-27T07:03:49;11.43;;;3.55;;
60873;SDS011;46715;40.642;-7.920;2022-09-27T07:06:01;18.67;;;4.13;;
60873;SDS011;46715;40.642;-7.920;2022-09-27T07:08:33;8.88;;;2.95;;
60873;SDS011;46715;40.642;-7.920;2022-09-27T07:10:35;6.32;;;3.25;;
60873;SDS011;46715;40.642;-7.920;2022-09-27T07:12:37;8.80;;;3.63;;
60873;SDS011;46715;40.642;-7.920;2022-09-27T07:14:43;8.55;;;3.60;;
60873;SDS011;46715;40.642;-7.920;2022-09-27T07:16:48;8.77;;;4.55;;
60873;SDS011;46715;40.642;-7.920;2022-09-27T07:18:50;8.27;;;3.35;;
60873;SDS011;46715;40.642;-7.920;2022-09-27T07:20:52;6.60;;;2.70;;
60873;SDS011;46715;40.642;-7.920;2022-09-27T07:24:54;5.80;;;3.10;;
60873;SDS011;46715;40.642;-7.920;2022-09-27T07:26:57;5.38;;;3.20;;
60873;SDS011;46715;40.642;-7.920;2022-09-27T07:29:00;3.45;;;2.70;;
60873;SDS011;46715;40.642;-7.920;2022-09-27T07:31:03;4.82;;;2.38;;
60873;SDS011;46715;40.642;-7.920;2022-09-27T07:33:05;5.90;;;2.58;;
60873;SDS011;46715;40.642;-7.920;2022-09-27T07:35:06;7.15;;;2.45;;
60873;SDS011;46715;40.642;-7.920;2022-09-27T07:37:09;3.92;;;2.63;;
60873;SDS011;46715;40.642;-7.920;2022-09-27T07:39:13;6.30;;;2.30;;
60873;SDS011;46715;40.642;-7.920;2022-09-27T07:41:14;5.13;;;2.20;;
60873;SDS011;46715;40.642;-7.920;2022-09-27T07:43:16;5.22;;;2.65;;
60873;SDS011;46715;40.642;-7.920;2022-09-27T07:45:20;8.93;;;2.55;;
60873;SDS011;46715;40.642;-7.920;2022-09-27T07:47:38;11.80;;;3.25;;
60873;SDS011;46715;40.642;-7.920;2022-09-27T07:50:03;7.78;;;3.30;;
60873;SDS011;46715;40.642;-7.920;2022-09-27T07:52:28;4.22;;;1.63;;
60873;SDS011;46715;40.642;-7.920;2022-09-27T07:54:59;3.80;;;2.65;;
60873;SDS011;46715;40.642;-7.920;2022-09-27T07:57:22;4.88;;;2.15;;
60873;SDS011;46715;40.642;-7.920;2022-09-27T07:59:25;3.75;;;2.08;;
60873;SDS011;46715;40.642;-7.920;2022-09-27T08:01:31;9.70;;;2.25;;
60873;SDS011;46715;40.642;-7.920;2022-09-27T08:03:38;5.38;;;2.25;;
60873;SDS011;46715;40.642;-7.920;2022-09-27T08:05:40;3.88;;;2.08;;
60873;SDS011;46715;40.642;-7.920;2022-09-27T08:07:41;4.43;;;2.22;;
60873;SDS011;46715;40.642;-7.920;2022-09-27T08:09:44;2.90;;;1.55;;
60873;SDS011;46715;40.642;-7.920;2022-09-27T08:12:09;5.03;;;2.85;;
60873;SDS011;46715;40.642;-7.920;2022-09-27T08:14:10;5.03;;;2.60;;
60873;SDS011;46715;40.642;-7.920;2022-09-27T08:16:14;5.38;;;2.13;;
60873;SDS011;46715;40.642;-7.920;2022-09-27T08:18:36;5.53;;;1.42;;
60873;SDS011;46715;40.642;-7.920;2022-09-27T08:20:58;5.22;;;1.98;;
60873;SDS011;46715;40.642;-7.920;2022-09-27T08:23:09;4.97;;;1.45;;
60873;SDS011;46715;40.642;-7.920;2022-09-27T08:25:15;7.40;;;1.60;;
60873;SDS011;46715;40.642;-7.920;2022-09-27T08:27:34;6.22;;;1.40;;
60873;SDS011;46715;40.642;-7.920;2022-09-27T08:31:49;2.30;;;0.82;;
60873;SDS011;46715;40.642;-7.920;2022-09-27T08:33:52;3.22;;;0.65;;
60873;SDS011;46715;40.642;-7.920;2022-09-27T08:35:54;2.58;;;0.70;;
60873;SDS011;46715;40.642;-7.920;2022-09-27T08:37:56;2.13;;;0.98;;
60873;SDS011;46715;40.642;-7.920;2022-09-27T08:40:01;1.48;;;0.60;;
60873;SDS011;46715;40.642;-7.920;2022-09-27T08:49:21;3.60;;;0.90;;
60873;SDS011;46715;40.642;-7.920;2022-09-27T08:51:30;3.22;;;1.00;;
60873;SDS011;46715;40.642;-7.920;2022-09-27T08:53:36;1.02;;;0.47;;
60873;SDS011;46715;40.642;-7.920;2022-09-27T08:55:42;2.15;;;0.80;;
60873;SDS011;46715;40.642;-7.920;2022-09-27T08:57:55;1.08;;;0.80;;
60873;SDS011;46715;40.642;-7.920;2022-09-27T09:00:06;3.17;;;0.80;;
60873;SDS011;46715;40.642;-7.920;2022-09-27T09:02:21;2.85;;;0.80;;
60873;SDS011;46715;40.642;-7.920;2022-09-27T09:04:36;1.65;;;0.60;;
60873;SDS011;46715;40.642;-7.920;2022-09-27T09:17:43;7.72;;;0.98;;
60873;SDS011;46715;40.642;-7.920;2022-09-27T09:20:33;2.67;;;1.90;;
60873;SDS011;46715;40.642;-7.920;2022-09-27T09:22:41;2.22;;;0.73;;
60873;SDS011;46715;40.642;-7.920;2022-09-27T09:32:40;2.00;;;0.40;;
60873;SDS011;46715;40.642;-7.920;2022-09-27T09:35:05;1.15;;;0.43;;
60873;SDS011;46715;40.642;-7.920;2022-09-27T09:38:09;0.65;;;0.40;;
60873;SDS011;46715;40.642;-7.920;2022-09-27T09:40:02;0.52;;;0.35;;
60873;SDS011;46715;40.642;-7.920;2022-09-27T09:44:47;1.73;;;0.55;;
60873;SDS011;46715;40.642;-7.920;2022-09-27T09:46:55;0.60;;;0.50;;
60873;SDS011;46715;40.642;-7.920;2022-09-27T09:49:01;1.10;;;0.50;;
60873;SDS011;46715;40.642;-7.920;2022-09-27T09:51:23;2.53;;;0.70;;
60873;SDS011;46715;40.642;-7.920;2022-09-27T09:55:34;0.90;;;0.50;;
60873;SDS011;46715;40.642;-7.920;2022-09-27T10:00:04;0.45;;;0.28;;
60873;SDS011;46715;40.642;-7.920;2022-09-27T10:04:23;1.80;;;0.40;;
60873;SDS011;46715;40.642;-7.920;2022-09-27T10:06:29;1.17;;;0.50;;
60873;SDS011;46715;40.642;-7.920;2022-09-27T10:08:34;1.20;;;0.50;;
60873;SDS011;46715;40.642;-7.920;2022-09-27T10:10:57;3.50;;;0.50;;
60873;SDS011;46715;40.642;-7.920;2022-09-27T10:13:17;1.17;;;0.50;;
60873;SDS011;46715;40.642;-7.920;2022-09-27T10:15:26;1.35;;;0.50;;
60873;SDS011;46715;40.642;-7.920;2022-09-27T10:17:37;3.65;;;0.60;;
60873;SDS011;46715;40.642;-7.920;2022-09-27T10:19:44;1.00;;;0.40;;
60873;SDS011;46715;40.642;-7.920;2022-09-27T10:21:47;0.32;;;0.30;;
60873;SDS011;46715;40.642;-7.920;2022-09-27T10:24:28;0.65;;;0.50;;
60873;SDS011;46715;40.642;-7.920;2022-09-27T10:26:40;1.80;;;0.55;;
60873;SDS011;46715;40.642;-7.920;2022-09-27T10:28:44;2.30;;;0.75;;
60873;SDS011;46715;40.642;-7.920;2022-09-27T10:30:54;2.67;;;1.10;;
60873;SDS011;46715;40.642;-7.920;2022-09-27T10:33:20;0.85;;;0.50;;
60873;SDS011;46715;40.642;-7.920;2022-09-27T10:35:36;1.40;;;0.50;;
60873;SDS011;46715;40.642;-7.920;2022-09-27T10:37:43;0.43;;;0.40;;
60873;SDS011;46715;40.642;-7.920;2022-09-27T10:39:57;0.68;;;0.50;;
60873;SDS011;46715;40.642;-7.920;2022-09-27T10:41:59;0.77;;;0.50;;
60873;SDS011;46715;40.642;-7.920;2022-09-27T10:46:26;1.10;;;0.77;;
60873;SDS011;46715;40.642;-7.920;2022-09-27T10:48:44;0.98;;;0.40;;
60873;SDS011;46715;40.642;-7.920;2022-09-27T10:51:02;0.52;;;0.40;;
60873;SDS011;46715;40.642;-7.920;2022-09-27T10:53:20;0.90;;;0.50;;
60873;SDS011;46715;40.642;-7.920;2022-09-27T10:55:34;0.80;;;0.68;;
60873;SDS011;46715;40.642;-7.920;2022-09-27T10:57:36;0.75;;;0.50;;
60873;SDS011;46715;40.642;-7.920;2022-09-27T10:59:39;2.72;;;0.50;;
60873;SDS011;46715;40.642;-7.920;2022-09-27T11:01:43;1.80;;;0.50;;
60873;SDS011;46715;40.642;-7.920;2022-09-27T11:04:06;0.85;;;0.68;;
60873;SDS011;46715;40.642;-7.920;2022-09-27T11:06:25;3.90;;;0.65;;
60873;SDS011;46715;40.642;-7.920;2022-09-27T11:08:31;0.50;;;0.40;;
60873;SDS011;46715;40.642;-7.920;2022-09-27T11:10:43;0.77;;;0.40;;
60873;SDS011;46715;40.642;-7.920;2022-09-27T11:12:59;1.73;;;0.60;;
60873;SDS011;46715;40.642;-7.920;2022-09-27T11:15:13;0.73;;;0.50;;
60873;SDS011;46715;40.642;-7.920;2022-09-27T11:17:55;0.52;;;0.30;;
60873;SDS011;46715;40.642;-7.920;2022-09-27T11:22:34;0.68;;;0.55;;
60873;SDS011;46715;40.642;-7.920;2022-09-27T11:32:32;1.10;;;0.70;;
60873;SDS011;46715;40.642;-7.920;2022-09-27T11:42:01;0.35;;;0.30;;
60873;SDS011;46715;40.642;-7.920;2022-09-27T11:44:21;0.70;;;0.40;;
60873;SDS011;46715;40.642;-7.920;2022-09-27T11:46:38;0.50;;;0.50;;
60873;SDS011;46715;40.642;-7.920;2022-09-27T11:51:00;0.30;;;0.30;;
60873;SDS011;46715;40.642;-7.920;2022-09-27T11:53:23;0.75;;;0.40;;
60873;SDS011;46715;40.642;-7.920;2022-09-27T11:56:00;1.33;;;0.68;;
60873;SDS011;46715;40.642;-7.920;2022-09-27T11:58:27;1.73;;;0.52;;
60873;SDS011;46715;40.642;-7.920;2022-09-27T12:07:56;3.50;;;0.50;;
60873;SDS011;46715;40.642;-7.920;2022-09-27T12:10:12;1.13;;;0.40;;
60873;SDS011;46715;40.642;-7.920;2022-09-27T12:12:18;0.40;;;0.40;;
60873;SDS011;46715;40.642;-7.920;2022-09-27T12:14:32;0.38;;;0.32;;
60873;SDS011;46715;40.642;-7.920;2022-09-27T12:16:36;0.95;;;0.40;;
60873;SDS011;46715;40.642;-7.920;2022-09-27T12:18:40;4.68;;;0.80;;
60873;SDS011;46715;40.642;-7.920;2022-09-27T12:21:01;1.60;;;0.60;;
60873;SDS011;46715;40.642;-7.920;2022-09-27T12:23:15;1.33;;;0.40;;
60873;SDS011;46715;40.642;-7.920;2022-09-27T12:25:41;2.05;;;0.70;;
60873;SDS011;46715;40.642;-7.920;2022-09-27T12:28:04;0.85;;;0.50;;
60873;SDS011;46715;40.642;-7.920;2022-09-27T12:30:15;1.15;;;0.40;;
60873;SDS011;46715;40.642;-7.920;2022-09-27T12:37:03;1.65;;;0.30;;
60873;SDS011;46715;40.642;-7.920;2022-09-27T12:39:13;1.00;;;0.40;;
60873;SDS011;46715;40.642;-7.920;2022-09-27T12:41:24;4.20;;;1.92;;
60873;SDS011;46715;40.642;-7.920;2022-09-27T12:43:48;0.80;;;0.40;;
60873;SDS011;46715;40.642;-7.920;2022-09-27T12:48:30;0.70;;;0.52;;
60873;SDS011;46715;40.642;-7.920;2022-09-27T12:50:57;1.88;;;0.40;;
60873;SDS011;46715;40.642;-7.920;2022-09-27T13:00:33;0.55;;;0.43;;
60873;SDS011;46715;40.642;-7.920;2022-09-27T13:02:51;0.82;;;0.40;;
60873;SDS011;46715;40.642;-7.920;2022-09-27T13:09:52;2.40;;;0.60;;
60873;SDS011;46715;40.642;-7.920;2022-09-27T13:12:12;2.72;;;0.80;;
60873;SDS011;46715;40.642;-7.920;2022-09-27T13:14:26;4.53;;;0.60;;
60873;SDS011;46715;40.642;-7.920;2022-09-27T13:16:44;0.90;;;0.50;;
60873;SDS011;46715;40.642;-7.920;2022-09-27T13:18:58;1.65;;;0.60;;
60873;SDS011;46715;40.642;-7.920;2022-09-27T13:21:04;1.23;;;0.40;;
60873;SDS011;46715;40.642;-7.920;2022-09-27T13:25:50;2.15;;;0.60;;
60873;SDS011;46715;40.642;-7.920;2022-09-27T13:32:36;0.75;;;0.45;;
60873;SDS011;46715;40.642;-7.920;2022-09-27T13:35:24;0.77;;;0.50;;
60873;SDS011;46715;40.642;-7.920;2022-09-27T13:37:46;2.88;;;0.60;;
60873;SDS011;46715;40.642;-7.920;2022-09-27T13:46:27;2.13;;;0.80;;
60873;SDS011;46715;40.642;-7.920;2022-09-27T13:59:04;0.57;;;0.40;;
60873;SDS011;46715;40.642;-7.920;2022-09-27T14:01:50;3.10;;;0.70;;
60873;SDS011;46715;40.642;-7.920;2022-09-27T14:04:13;1.13;;;0.65;;
60873;SDS011;46715;40.642;-7.920;2022-09-27T14:06:47;2.35;;;0.47;;
60873;SDS011;46715;40.642;-7.920;2022-09-27T14:09:47;1.35;;;0.50;;
60873;SDS011;46715;40.642;-7.920;2022-09-27T14:12:32;1.25;;;0.57;;
60873;SDS011;46715;40.642;-7.920;2022-09-27T14:14:54;1.33;;;0.52;;
60873;SDS011;46715;40.642;-7.920;2022-09-27T14:22:23;1.10;;;0.63;;
60873;SDS011;46715;40.642;-7.920;2022-09-27T14:24:53;2.38;;;0.85;;
60873;SDS011;46715;40.642;-7.920;2022-09-27T14:29:31;5.10;;;1.10;;
60873;SDS011;46715;40.642;-7.920;2022-09-27T14:31:38;6.20;;;1.00;;
60873;SDS011;46715;40.642;-7.920;2022-09-27T14:33:45;4.50;;;0.90;;
60873;SDS011;46715;40.642;-7.920;2022-09-27T14:35:47;2.33;;;1.20;;
60873;SDS011;46715;40.642;-7.920;2022-09-27T14:38:28;2.72;;;0.95;;
60873;SDS011;46715;40.642;-7.920;2022-09-27T14:40:36;3.70;;;0.80;;
60873;SDS011;46715;40.642;-7.920;2022-09-27T14:42:44;1.45;;;0.80;;
60873;SDS011;46715;40.642;-7.920;2022-09-27T14:44:46;5.05;;;1.00;;
60873;SDS011;46715;40.642;-7.920;2022-09-27T14:46:54;1.90;;;0.90;;
60873;SDS011;46715;40.642;-7.920;2022-09-27T14:49:23;1.38;;;0.80;;
60873;SDS011;46715;40.642;-7.920;2022-09-27T14:51:28;2.03;;;0.98;;
60873;SDS011;46715;40.642;-7.920;2022-09-27T14:53:40;3.58;;;1.10;;
60873;SDS011;46715;40.642;-7.920;2022-09-27T14:55:43;0.90;;;0.70;;
60873;SDS011;46715;40.642;-7.920;2022-09-27T14:57:49;5.15;;;1.05;;
60873;SDS011;46715;40.642;-7.920;2022-09-27T14:59:57;3.28;;;0.98;;
60873;SDS011;46715;40.642;-7.920;2022-09-27T15:02:01;2.88;;;1.00;;
60873;SDS011;46715;40.642;-7.920;2022-09-27T15:04:14;1.85;;;1.08;;
60873;SDS011;46715;40.642;-7.920;2022-09-27T15:06:16;3.53;;;1.50;;
60873;SDS011;46715;40.642;-7.920;2022-09-27T15:10:21;11.32;;;8.43;;
60873;SDS011;46715;40.642;-7.920;2022-09-27T15:12:26;5.82;;;1.17;;
60873;SDS011;46715;40.642;-7.920;2022-09-27T15:14:28;1.75;;;1.17;;
60873;SDS011;46715;40.642;-7.920;2022-09-27T15:16:32;3.25;;;1.10;;
60873;SDS011;46715;40.642;-7.920;2022-09-27T15:20:38;2.78;;;1.30;;
60873;SDS011;46715;40.642;-7.920;2022-09-27T15:22:53;5.75;;;4.22;;
60873;SDS011;46715;40.642;-7.920;2022-09-27T15:25:02;2.10;;;1.23;;
60873;SDS011;46715;40.642;-7.920;2022-09-27T15:27:26;3.83;;;1.10;;
60873;SDS011;46715;40.642;-7.920;2022-09-27T15:29:29;5.15;;;1.40;;
60873;SDS011;46715;40.642;-7.920;2022-09-27T15:31:40;2.08;;;1.15;;
60873;SDS011;46715;40.642;-7.920;2022-09-27T15:33:41;3.45;;;1.17;;
60873;SDS011;46715;40.642;-7.920;2022-09-27T15:35:52;5.15;;;1.40;;
60873;SDS011;46715;40.642;-7.920;2022-09-27T15:38:09;4.78;;;1.40;;
60873;SDS011;46715;40.642;-7.920;2022-09-27T15:42:30;7.43;;;1.20;;
60873;SDS011;46715;40.642;-7.920;2022-09-27T15:45:00;2.40;;;1.27;;
60873;SDS011;46715;40.642;-7.920;2022-09-27T15:47:00;5.30;;;1.30;;
60873;SDS011;46715;40.642;-7.920;2022-09-27T15:51:38;3.55;;;1.40;;
60873;SDS011;46715;40.642;-7.920;2022-09-27T15:53:41;4.13;;;1.55;;
60873;SDS011;46715;40.642;-7.920;2022-09-27T15:55:42;3.47;;;1.50;;
60873;SDS011;46715;40.642;-7.920;2022-09-27T15:57:45;4.22;;;1.20;;